<?xml version="1.0" encoding="UTF-8"?>
<gpx version="1.1" creator="2bulu-scraper" xmlns="http://www.topografix.com/GPX/1/1">
  <metadata><name>内江隆昌市</name><desc>source: 2bulu.com trackId=85660342; exported 2026-09-01T17:59:55.032Z</desc>
    <bounds minlat="29.328198" minlon="105.2341062" maxlat="29.3376331" maxlon="105.2604472"/>
    <link href="https://www.2bulu.com/track/t-qmfSTFZbGK%252Fp%252FR2KBg5Tzw%253D%253D.htm"><text>2bulu 源页面</text></link>
  </metadata>
  <wpt lat="29.3320563" lon="105.2435742"><ele>330</ele><name>
        </name></wpt>
  <wpt lat="29.3327304" lon="105.2421958"><ele>320</ele><name>
        </name></wpt>
  <wpt lat="29.3328931" lon="105.241412"><ele>319</ele><name>
        </name></wpt>
  <wpt lat="29.3328476" lon="105.2413289"><ele>319</ele><name>
        </name></wpt>
  <wpt lat="29.3324295" lon="105.2400358"><ele>320</ele><name>
        </name></wpt>
  <wpt lat="29.3322742" lon="105.2384608"><ele>322</ele><name>
        </name></wpt>
  <wpt lat="29.3321289" lon="105.2371677"><ele>316</ele><name>
        </name></wpt>
  <wpt lat="29.3320414" lon="105.2366967"><ele>319</ele><name>
        </name></wpt>
  <wpt lat="29.3319383" lon="105.2354099"><ele>319</ele><name>
        </name></wpt>
  <wpt lat="29.3291526" lon="105.2345727"><ele>297</ele><name>
        </name></wpt>
  <wpt lat="29.3289666" lon="105.2341609"><ele>298</ele><name>
        </name></wpt>
  <wpt lat="29.3288997" lon="105.2348876"><ele>287</ele><name>
        </name></wpt>
  <wpt lat="29.3316566" lon="105.2383818"><ele>315</ele><name>
        </name></wpt>
  <wpt lat="29.3321702" lon="105.2389942"><ele>318</ele><name>
        </name></wpt>
  <wpt lat="29.3321702" lon="105.2389942"><ele>318</ele><name>
        </name></wpt>
  <wpt lat="29.3328322" lon="105.2412903"><ele>317</ele><name>
        </name></wpt>
  <wpt lat="29.333525" lon="105.2485007"><ele>322</ele><name>
        </name></wpt>
  <wpt lat="29.3350575" lon="105.2500029"><ele>323</ele><name>
        </name></wpt>
  <wpt lat="29.3347067" lon="105.2518937"><ele>328</ele><name>
        </name></wpt>
  <wpt lat="29.3333539" lon="105.2587627"><ele>317</ele><name>
        </name></wpt>
  <wpt lat="29.3349923" lon="105.2591148"><ele>317</ele><name>
        </name></wpt>
  <wpt lat="29.3355027" lon="105.2592893"><ele>314</ele><name>
        </name></wpt>
  <wpt lat="29.3366184" lon="105.2599008"><ele>315</ele><name>
        </name></wpt>
  <trk><name>内江隆昌市</name>
      <trkseg>
        <trkpt lat="29.3335683" lon="105.2494526"><ele>331.22</ele><time>2026-06-10T23:13:31.000Z</time></trkpt>
        <trkpt lat="29.3333414" lon="105.2495196"><ele>331.22</ele><time>2026-06-10T23:13:36.000Z</time></trkpt>
        <trkpt lat="29.3332338" lon="105.2494516"><ele>331.86</ele><time>2026-06-10T23:13:38.000Z</time></trkpt>
        <trkpt lat="29.3331866" lon="105.2493437"><ele>332</ele><time>2026-06-10T23:13:40.000Z</time></trkpt>
        <trkpt lat="29.3332142" lon="105.2491845"><ele>331.75</ele><time>2026-06-10T23:13:42.000Z</time></trkpt>
        <trkpt lat="29.3332504" lon="105.2490188"><ele>331.49</ele><time>2026-06-10T23:13:44.000Z</time></trkpt>
        <trkpt lat="29.3332898" lon="105.2488696"><ele>331.74</ele><time>2026-06-10T23:13:46.000Z</time></trkpt>
        <trkpt lat="29.3333403" lon="105.2487168"><ele>332.45</ele><time>2026-06-10T23:13:48.000Z</time></trkpt>
        <trkpt lat="29.3334133" lon="105.2485839"><ele>333.5</ele><time>2026-06-10T23:13:50.000Z</time></trkpt>
        <trkpt lat="29.3334913" lon="105.2484455"><ele>334.06</ele><time>2026-06-10T23:13:52.000Z</time></trkpt>
        <trkpt lat="29.3335711" lon="105.2483027"><ele>334.1</ele><time>2026-06-10T23:13:54.000Z</time></trkpt>
        <trkpt lat="29.3336457" lon="105.24816"><ele>333.75</ele><time>2026-06-10T23:13:56.000Z</time></trkpt>
        <trkpt lat="29.333717" lon="105.2480192"><ele>333.6</ele><time>2026-06-10T23:13:58.000Z</time></trkpt>
        <trkpt lat="29.3337624" lon="105.2478734"><ele>333.33</ele><time>2026-06-10T23:14:00.000Z</time></trkpt>
        <trkpt lat="29.3337764" lon="105.2477234"><ele>332.62</ele><time>2026-06-10T23:14:02.000Z</time></trkpt>
        <trkpt lat="29.3337699" lon="105.2475604"><ele>332.17</ele><time>2026-06-10T23:14:04.000Z</time></trkpt>
        <trkpt lat="29.3337621" lon="105.2474002"><ele>331.07</ele><time>2026-06-10T23:14:06.000Z</time></trkpt>
        <trkpt lat="29.3337717" lon="105.2472612"><ele>330.19</ele><time>2026-06-10T23:14:08.000Z</time></trkpt>
        <trkpt lat="29.3338124" lon="105.2471308"><ele>329.37</ele><time>2026-06-10T23:14:10.000Z</time></trkpt>
        <trkpt lat="29.333853" lon="105.2469962"><ele>329.51</ele><time>2026-06-10T23:14:12.000Z</time></trkpt>
        <trkpt lat="29.3338719" lon="105.2468487"><ele>329.07</ele><time>2026-06-10T23:14:14.000Z</time></trkpt>
        <trkpt lat="29.3338175" lon="105.2467197"><ele>328.45</ele><time>2026-06-10T23:14:16.000Z</time></trkpt>
        <trkpt lat="29.3337181" lon="105.2466295"><ele>328.42</ele><time>2026-06-10T23:14:18.000Z</time></trkpt>
        <trkpt lat="29.3335776" lon="105.2465667"><ele>327.76</ele><time>2026-06-10T23:14:20.000Z</time></trkpt>
        <trkpt lat="29.3334239" lon="105.2465002"><ele>326.9</ele><time>2026-06-10T23:14:22.000Z</time></trkpt>
        <trkpt lat="29.3332682" lon="105.2464391"><ele>325.42</ele><time>2026-06-10T23:14:24.000Z</time></trkpt>
        <trkpt lat="29.333119" lon="105.2463757"><ele>323.95</ele><time>2026-06-10T23:14:26.000Z</time></trkpt>
        <trkpt lat="29.3329777" lon="105.2463092"><ele>323.33</ele><time>2026-06-10T23:14:28.000Z</time></trkpt>
        <trkpt lat="29.332856" lon="105.2462498"><ele>323.52</ele><time>2026-06-10T23:14:30.000Z</time></trkpt>
        <trkpt lat="29.3327269" lon="105.2462043"><ele>323.28</ele><time>2026-06-10T23:14:32.000Z</time></trkpt>
        <trkpt lat="29.3325897" lon="105.2461795"><ele>323.36</ele><time>2026-06-10T23:14:34.000Z</time></trkpt>
        <trkpt lat="29.3324408" lon="105.2461625"><ele>323.14</ele><time>2026-06-10T23:14:36.000Z</time></trkpt>
        <trkpt lat="29.3323034" lon="105.2461486"><ele>323.11</ele><time>2026-06-10T23:14:38.000Z</time></trkpt>
        <trkpt lat="29.3321525" lon="105.2460967"><ele>323.18</ele><time>2026-06-10T23:14:40.000Z</time></trkpt>
        <trkpt lat="29.3320226" lon="105.2460127"><ele>323.21</ele><time>2026-06-10T23:14:42.000Z</time></trkpt>
        <trkpt lat="29.3319293" lon="105.2458943"><ele>322.15</ele><time>2026-06-10T23:14:44.000Z</time></trkpt>
        <trkpt lat="29.3318465" lon="105.2457768"><ele>322.4</ele><time>2026-06-10T23:14:46.000Z</time></trkpt>
        <trkpt lat="29.3317535" lon="105.2456664"><ele>322.71</ele><time>2026-06-10T23:14:48.000Z</time></trkpt>
        <trkpt lat="29.3316256" lon="105.245604"><ele>322.93</ele><time>2026-06-10T23:14:50.000Z</time></trkpt>
        <trkpt lat="29.3314805" lon="105.2455686"><ele>323.75</ele><time>2026-06-10T23:14:52.000Z</time></trkpt>
        <trkpt lat="29.3313317" lon="105.2455573"><ele>324.8</ele><time>2026-06-10T23:14:54.000Z</time></trkpt>
        <trkpt lat="29.3312044" lon="105.245529"><ele>326.41</ele><time>2026-06-10T23:14:56.000Z</time></trkpt>
        <trkpt lat="29.3311178" lon="105.2454376"><ele>327.93</ele><time>2026-06-10T23:14:58.000Z</time></trkpt>
        <trkpt lat="29.3310726" lon="105.245296"><ele>328.92</ele><time>2026-06-10T23:15:00.000Z</time></trkpt>
        <trkpt lat="29.3310525" lon="105.2451285"><ele>329.25</ele><time>2026-06-10T23:15:02.000Z</time></trkpt>
        <trkpt lat="29.3310527" lon="105.2449497"><ele>329.46</ele><time>2026-06-10T23:15:04.000Z</time></trkpt>
        <trkpt lat="29.3310887" lon="105.2447683"><ele>329.61</ele><time>2026-06-10T23:15:06.000Z</time></trkpt>
        <trkpt lat="29.3311664" lon="105.2446166"><ele>329.52</ele><time>2026-06-10T23:15:08.000Z</time></trkpt>
        <trkpt lat="29.331275" lon="105.244489"><ele>329.45</ele><time>2026-06-10T23:15:10.000Z</time></trkpt>
        <trkpt lat="29.3313949" lon="105.2443593"><ele>329.17</ele><time>2026-06-10T23:15:12.000Z</time></trkpt>
        <trkpt lat="29.3315161" lon="105.2442329"><ele>329.16</ele><time>2026-06-10T23:15:14.000Z</time></trkpt>
        <trkpt lat="29.3316327" lon="105.244106"><ele>329.76</ele><time>2026-06-10T23:15:16.000Z</time></trkpt>
        <trkpt lat="29.3317409" lon="105.2439744"><ele>330.26</ele><time>2026-06-10T23:15:18.000Z</time></trkpt>
        <trkpt lat="29.3318454" lon="105.2438398"><ele>330.47</ele><time>2026-06-10T23:15:20.000Z</time></trkpt>
        <trkpt lat="29.3319514" lon="105.2437072"><ele>330.53</ele><time>2026-06-10T23:15:22.000Z</time></trkpt>
        <trkpt lat="29.3320563" lon="105.2435742"><ele>330.63</ele><time>2026-06-10T23:15:24.000Z</time></trkpt>
        <trkpt lat="29.3321486" lon="105.2434352"><ele>330.36</ele><time>2026-06-10T23:15:26.000Z</time></trkpt>
        <trkpt lat="29.3322287" lon="105.2432909"><ele>330.02</ele><time>2026-06-10T23:15:28.000Z</time></trkpt>
        <trkpt lat="29.3323059" lon="105.2431409"><ele>329.76</ele><time>2026-06-10T23:15:30.000Z</time></trkpt>
        <trkpt lat="29.3323885" lon="105.2429932"><ele>329.45</ele><time>2026-06-10T23:15:32.000Z</time></trkpt>
        <trkpt lat="29.3324588" lon="105.2428394"><ele>329.07</ele><time>2026-06-10T23:15:34.000Z</time></trkpt>
        <trkpt lat="29.3325074" lon="105.2426691"><ele>328.56</ele><time>2026-06-10T23:15:36.000Z</time></trkpt>
        <trkpt lat="29.3325616" lon="105.2424962"><ele>327.51</ele><time>2026-06-10T23:15:38.000Z</time></trkpt>
        <trkpt lat="29.3326374" lon="105.2423354"><ele>325.77</ele><time>2026-06-10T23:15:40.000Z</time></trkpt>
        <trkpt lat="29.3327304" lon="105.2421958"><ele>323.86</ele><time>2026-06-10T23:15:42.000Z</time></trkpt>
        <trkpt lat="29.3328202" lon="105.2420622"><ele>322.28</ele><time>2026-06-10T23:15:44.000Z</time></trkpt>
        <trkpt lat="29.3328933" lon="105.2419152"><ele>321.25</ele><time>2026-06-10T23:15:46.000Z</time></trkpt>
        <trkpt lat="29.3329469" lon="105.2417796"><ele>320.67</ele><time>2026-06-10T23:15:48.000Z</time></trkpt>
        <trkpt lat="29.3329669" lon="105.241656"><ele>320.18</ele><time>2026-06-10T23:15:50.000Z</time></trkpt>
        <trkpt lat="29.3329478" lon="105.2415528"><ele>319.83</ele><time>2026-06-10T23:15:52.000Z</time></trkpt>
        <trkpt lat="29.3329093" lon="105.2414477"><ele>319.73</ele><time>2026-06-10T23:15:56.000Z</time></trkpt>
        <trkpt lat="29.3328931" lon="105.241412"><ele>319.35</ele><time>2026-06-10T23:16:00.000Z</time></trkpt>
        <trkpt lat="29.3328476" lon="105.2413289"><ele>319.06</ele><time>2026-06-10T23:16:18.000Z</time></trkpt>
        <trkpt lat="29.3328047" lon="105.2412142"><ele>319.21</ele><time>2026-06-10T23:16:22.000Z</time></trkpt>
        <trkpt lat="29.3327586" lon="105.2410755"><ele>319.15</ele><time>2026-06-10T23:16:26.000Z</time></trkpt>
        <trkpt lat="29.3327247" lon="105.2409197"><ele>319.18</ele><time>2026-06-10T23:16:30.000Z</time></trkpt>
        <trkpt lat="29.3326924" lon="105.240754"><ele>319.18</ele><time>2026-06-10T23:16:34.000Z</time></trkpt>
        <trkpt lat="29.3326321" lon="105.240637"><ele>319.26</ele><time>2026-06-10T23:16:36.000Z</time></trkpt>
        <trkpt lat="29.3325905" lon="105.2405376"><ele>319.32</ele><time>2026-06-10T23:16:38.000Z</time></trkpt>
        <trkpt lat="29.3325581" lon="105.240442"><ele>319.28</ele><time>2026-06-10T23:16:40.000Z</time></trkpt>
        <trkpt lat="29.3325033" lon="105.2402717"><ele>319.28</ele><time>2026-06-10T23:16:44.000Z</time></trkpt>
        <trkpt lat="29.3324637" lon="105.2401434"><ele>319.37</ele><time>2026-06-10T23:16:46.000Z</time></trkpt>
        <trkpt lat="29.3324295" lon="105.2400358"><ele>319.61</ele><time>2026-06-10T23:16:48.000Z</time></trkpt>
        <trkpt lat="29.3323756" lon="105.2398645"><ele>319.74</ele><time>2026-06-10T23:16:52.000Z</time></trkpt>
        <trkpt lat="29.3323342" lon="105.2397405"><ele>319.68</ele><time>2026-06-10T23:16:54.000Z</time></trkpt>
        <trkpt lat="29.3323021" lon="105.2396356"><ele>319.62</ele><time>2026-06-10T23:16:56.000Z</time></trkpt>
        <trkpt lat="29.3322717" lon="105.239534"><ele>319.51</ele><time>2026-06-10T23:16:58.000Z</time></trkpt>
        <trkpt lat="29.3322411" lon="105.239432"><ele>319.56</ele><time>2026-06-10T23:17:00.000Z</time></trkpt>
        <trkpt lat="29.3322119" lon="105.2393293"><ele>319.7</ele><time>2026-06-10T23:17:02.000Z</time></trkpt>
        <trkpt lat="29.3321844" lon="105.2392287"><ele>319.83</ele><time>2026-06-10T23:17:04.000Z</time></trkpt>
        <trkpt lat="29.3321501" lon="105.2390504"><ele>319.79</ele><time>2026-06-10T23:17:08.000Z</time></trkpt>
        <trkpt lat="29.3321374" lon="105.2389192"><ele>320.01</ele><time>2026-06-10T23:17:10.000Z</time></trkpt>
        <trkpt lat="29.3321463" lon="105.2388081"><ele>320.05</ele><time>2026-06-10T23:17:12.000Z</time></trkpt>
        <trkpt lat="29.3321997" lon="105.2386414"><ele>320.24</ele><time>2026-06-10T23:17:16.000Z</time></trkpt>
        <trkpt lat="29.3322742" lon="105.2384608"><ele>320.89</ele><time>2026-06-10T23:17:20.000Z</time></trkpt>
        <trkpt lat="29.3323062" lon="105.238267"><ele>321.31</ele><time>2026-06-10T23:17:24.000Z</time></trkpt>
        <trkpt lat="29.3323048" lon="105.2381372"><ele>320.59</ele><time>2026-06-10T23:17:26.000Z</time></trkpt>
        <trkpt lat="29.332291" lon="105.2380291"><ele>320.28</ele><time>2026-06-10T23:17:28.000Z</time></trkpt>
        <trkpt lat="29.3322748" lon="105.2379196"><ele>319.93</ele><time>2026-06-10T23:17:30.000Z</time></trkpt>
        <trkpt lat="29.3322593" lon="105.2378026"><ele>319.56</ele><time>2026-06-10T23:17:32.000Z</time></trkpt>
        <trkpt lat="29.3322401" lon="105.2376828"><ele>319.32</ele><time>2026-06-10T23:17:34.000Z</time></trkpt>
        <trkpt lat="29.3322301" lon="105.2375615"><ele>319.16</ele><time>2026-06-10T23:17:36.000Z</time></trkpt>
        <trkpt lat="29.3322089" lon="105.2374424"><ele>319.28</ele><time>2026-06-10T23:17:38.000Z</time></trkpt>
        <trkpt lat="29.3321826" lon="105.2373265"><ele>318.98</ele><time>2026-06-10T23:17:40.000Z</time></trkpt>
        <trkpt lat="29.3321289" lon="105.2371677"><ele>318.76</ele><time>2026-06-10T23:17:44.000Z</time></trkpt>
        <trkpt lat="29.3320777" lon="105.2369921"><ele>317.66</ele><time>2026-06-10T23:17:48.000Z</time></trkpt>
        <trkpt lat="29.3320526" lon="105.2368283"><ele>317.07</ele><time>2026-06-10T23:17:52.000Z</time></trkpt>
        <trkpt lat="29.3320414" lon="105.2366967"><ele>317.01</ele><time>2026-06-10T23:17:56.000Z</time></trkpt>
        <trkpt lat="29.3320381" lon="105.236567"><ele>317.79</ele><time>2026-06-10T23:18:02.000Z</time></trkpt>
        <trkpt lat="29.3320276" lon="105.2364216"><ele>318.52</ele><time>2026-06-10T23:18:06.000Z</time></trkpt>
        <trkpt lat="29.3320101" lon="105.2362429"><ele>318.99</ele><time>2026-06-10T23:18:10.000Z</time></trkpt>
        <trkpt lat="29.3319938" lon="105.2360554"><ele>319.22</ele><time>2026-06-10T23:18:14.000Z</time></trkpt>
        <trkpt lat="29.3319762" lon="105.2358725"><ele>319.17</ele><time>2026-06-10T23:18:18.000Z</time></trkpt>
        <trkpt lat="29.331958" lon="105.2356965"><ele>319.04</ele><time>2026-06-10T23:18:22.000Z</time></trkpt>
        <trkpt lat="29.3319472" lon="105.2355408"><ele>318.94</ele><time>2026-06-10T23:18:26.000Z</time></trkpt>
        <trkpt lat="29.3319383" lon="105.2354099"><ele>318.88</ele><time>2026-06-10T23:18:30.000Z</time></trkpt>
        <trkpt lat="29.331927" lon="105.2352812"><ele>318.95</ele><time>2026-06-10T23:18:34.000Z</time></trkpt>
        <trkpt lat="29.3319122" lon="105.2351325"><ele>319.04</ele><time>2026-06-10T23:18:38.000Z</time></trkpt>
        <trkpt lat="29.3319047" lon="105.234984"><ele>319.17</ele><time>2026-06-10T23:18:42.000Z</time></trkpt>
        <trkpt lat="29.3318765" lon="105.234871"><ele>319.41</ele><time>2026-06-10T23:18:48.000Z</time></trkpt>
        <trkpt lat="29.3318402" lon="105.2349326"><ele>319.71</ele><time>2026-06-10T23:18:54.000Z</time></trkpt>
        <trkpt lat="29.3318413" lon="105.2350784"><ele>318.99</ele><time>2026-06-10T23:18:58.000Z</time></trkpt>
        <trkpt lat="29.3318365" lon="105.235226"><ele>318.15</ele><time>2026-06-10T23:19:02.000Z</time></trkpt>
        <trkpt lat="29.3317649" lon="105.2352699"><ele>317.07</ele><time>2026-06-10T23:19:06.000Z</time></trkpt>
        <trkpt lat="29.3316855" lon="105.2352"><ele>315.83</ele><time>2026-06-10T23:19:10.000Z</time></trkpt>
        <trkpt lat="29.3315892" lon="105.2352603"><ele>314.59</ele><time>2026-06-10T23:19:16.000Z</time></trkpt>
        <trkpt lat="29.331517" lon="105.2353767"><ele>312.36</ele><time>2026-06-10T23:19:20.000Z</time></trkpt>
        <trkpt lat="29.3314641" lon="105.2354878"><ele>310.18</ele><time>2026-06-10T23:19:24.000Z</time></trkpt>
        <trkpt lat="29.3314109" lon="105.2356007"><ele>308.44</ele><time>2026-06-10T23:19:28.000Z</time></trkpt>
        <trkpt lat="29.3313186" lon="105.2356472"><ele>306.58</ele><time>2026-06-10T23:19:34.000Z</time></trkpt>
        <trkpt lat="29.3312205" lon="105.2355732"><ele>304.7</ele><time>2026-06-10T23:19:38.000Z</time></trkpt>
        <trkpt lat="29.3311828" lon="105.2355254"><ele>303.07</ele><time>2026-06-10T23:19:42.000Z</time></trkpt>
        <trkpt lat="29.331189" lon="105.235667"><ele>302.41</ele><time>2026-06-10T23:36:02.000Z</time></trkpt>
        <trkpt lat="29.3311954" lon="105.2357766"><ele>302.7</ele><time>2026-06-10T23:36:04.000Z</time></trkpt>
        <trkpt lat="29.3312059" lon="105.2358852"><ele>303.1</ele><time>2026-06-10T23:36:06.000Z</time></trkpt>
        <trkpt lat="29.3312224" lon="105.2360562"><ele>303.36</ele><time>2026-06-10T23:36:10.000Z</time></trkpt>
        <trkpt lat="29.3312373" lon="105.2362116"><ele>303.74</ele><time>2026-06-10T23:36:14.000Z</time></trkpt>
        <trkpt lat="29.3312076" lon="105.2363351"><ele>303.99</ele><time>2026-06-10T23:36:18.000Z</time></trkpt>
        <trkpt lat="29.331067" lon="105.2364427"><ele>303.88</ele><time>2026-06-10T23:36:22.000Z</time></trkpt>
        <trkpt lat="29.330953" lon="105.2365419"><ele>302.74</ele><time>2026-06-10T23:36:24.000Z</time></trkpt>
        <trkpt lat="29.3308659" lon="105.2366408"><ele>302.05</ele><time>2026-06-10T23:36:26.000Z</time></trkpt>
        <trkpt lat="29.330795" lon="105.2367347"><ele>301.5</ele><time>2026-06-10T23:36:28.000Z</time></trkpt>
        <trkpt lat="29.3307318" lon="105.2368194"><ele>301.19</ele><time>2026-06-10T23:36:30.000Z</time></trkpt>
        <trkpt lat="29.3306723" lon="105.236896"><ele>301.01</ele><time>2026-06-10T23:36:32.000Z</time></trkpt>
        <trkpt lat="29.3306496" lon="105.2370095"><ele>300.62</ele><time>2026-06-10T23:36:36.000Z</time></trkpt>
        <trkpt lat="29.3306592" lon="105.2370493"><ele>300.75</ele><time>2026-06-10T23:36:40.000Z</time></trkpt>
        <trkpt lat="29.3306189" lon="105.2371119"><ele>300.7</ele><time>2026-06-10T23:37:04.000Z</time></trkpt>
        <trkpt lat="29.3305983" lon="105.237045"><ele>300.55</ele><time>2026-06-10T23:37:36.000Z</time></trkpt>
        <trkpt lat="29.3306015" lon="105.2369307"><ele>300.04</ele><time>2026-06-10T23:37:50.000Z</time></trkpt>
        <trkpt lat="29.3306203" lon="105.2368061"><ele>300.43</ele><time>2026-06-10T23:38:06.000Z</time></trkpt>
        <trkpt lat="29.3306259" lon="105.2366863"><ele>300.5</ele><time>2026-06-10T23:38:20.000Z</time></trkpt>
        <trkpt lat="29.3305829" lon="105.2365904"><ele>299.94</ele><time>2026-06-10T23:38:48.000Z</time></trkpt>
        <trkpt lat="29.3304913" lon="105.2365826"><ele>299.06</ele><time>2026-06-10T23:39:08.000Z</time></trkpt>
        <trkpt lat="29.3303908" lon="105.2365982"><ele>298.77</ele><time>2026-06-10T23:39:28.000Z</time></trkpt>
        <trkpt lat="29.3303211" lon="105.2365459"><ele>298.69</ele><time>2026-06-10T23:39:46.000Z</time></trkpt>
        <trkpt lat="29.3302369" lon="105.2365037"><ele>298.34</ele><time>2026-06-10T23:40:14.000Z</time></trkpt>
        <trkpt lat="29.33014" lon="105.2364905"><ele>298.42</ele><time>2026-06-10T23:40:30.000Z</time></trkpt>
        <trkpt lat="29.3300822" lon="105.236559"><ele>298.44</ele><time>2026-06-10T23:40:58.000Z</time></trkpt>
        <trkpt lat="29.3300678" lon="105.2366645"><ele>296.93</ele><time>2026-06-10T23:41:14.000Z</time></trkpt>
        <trkpt lat="29.330074" lon="105.2367834"><ele>295.28</ele><time>2026-06-10T23:41:30.000Z</time></trkpt>
        <trkpt lat="29.3300768" lon="105.2369029"><ele>294.44</ele><time>2026-06-10T23:41:44.000Z</time></trkpt>
        <trkpt lat="29.3300804" lon="105.2370187"><ele>294.18</ele><time>2026-06-10T23:42:00.000Z</time></trkpt>
        <trkpt lat="29.3300689" lon="105.2371357"><ele>294.69</ele><time>2026-06-10T23:42:14.000Z</time></trkpt>
        <trkpt lat="29.3300647" lon="105.2372514"><ele>295.46</ele><time>2026-06-10T23:42:28.000Z</time></trkpt>
        <trkpt lat="29.3300136" lon="105.2373464"><ele>295.75</ele><time>2026-06-10T23:42:34.000Z</time></trkpt>
        <trkpt lat="29.3299435" lon="105.2373027"><ele>297.7</ele><time>2026-06-10T23:42:42.000Z</time></trkpt>
        <trkpt lat="29.3298958" lon="105.2372008"><ele>297.01</ele><time>2026-06-10T23:42:54.000Z</time></trkpt>
        <trkpt lat="29.3299571" lon="105.2370773"><ele>299.04</ele><time>2026-06-10T23:45:54.000Z</time></trkpt>
        <trkpt lat="29.3299651" lon="105.2369672"><ele>297.84</ele><time>2026-06-10T23:46:04.000Z</time></trkpt>
        <trkpt lat="29.3299759" lon="105.2368582"><ele>297.22</ele><time>2026-06-10T23:46:14.000Z</time></trkpt>
        <trkpt lat="29.3299838" lon="105.2367432"><ele>296.52</ele><time>2026-06-10T23:46:24.000Z</time></trkpt>
        <trkpt lat="29.3299862" lon="105.236632"><ele>295.87</ele><time>2026-06-10T23:46:34.000Z</time></trkpt>
        <trkpt lat="29.3299909" lon="105.2365203"><ele>295.64</ele><time>2026-06-10T23:46:44.000Z</time></trkpt>
        <trkpt lat="29.3299938" lon="105.2364038"><ele>295.26</ele><time>2026-06-10T23:46:54.000Z</time></trkpt>
        <trkpt lat="29.3299949" lon="105.2362874"><ele>294.86</ele><time>2026-06-10T23:47:04.000Z</time></trkpt>
        <trkpt lat="29.3300042" lon="105.2361764"><ele>294.55</ele><time>2026-06-10T23:47:14.000Z</time></trkpt>
        <trkpt lat="29.3300261" lon="105.2360588"><ele>294.98</ele><time>2026-06-10T23:49:00.000Z</time></trkpt>
        <trkpt lat="29.3301132" lon="105.2360126"><ele>294.77</ele><time>2026-06-10T23:58:46.000Z</time></trkpt>
        <trkpt lat="29.3300689" lon="105.2359182"><ele>290.9</ele><time>2026-06-10T23:59:00.000Z</time></trkpt>
        <trkpt lat="29.3300431" lon="105.2358066"><ele>289.48</ele><time>2026-06-10T23:59:12.000Z</time></trkpt>
        <trkpt lat="29.3300211" lon="105.2356969"><ele>289.53</ele><time>2026-06-10T23:59:22.000Z</time></trkpt>
        <trkpt lat="29.3300157" lon="105.235574"><ele>290.51</ele><time>2026-06-10T23:59:32.000Z</time></trkpt>
        <trkpt lat="29.330015" lon="105.2354496"><ele>292.14</ele><time>2026-06-10T23:59:42.000Z</time></trkpt>
        <trkpt lat="29.3300179" lon="105.2353263"><ele>293.47</ele><time>2026-06-10T23:59:52.000Z</time></trkpt>
        <trkpt lat="29.3299985" lon="105.2352153"><ele>294.6</ele><time>2026-06-10T23:59:56.000Z</time></trkpt>
        <trkpt lat="29.3300057" lon="105.2351004"><ele>295.55</ele><time>2026-06-11T00:00:08.000Z</time></trkpt>
        <trkpt lat="29.3300261" lon="105.2349962"><ele>296.1</ele><time>2026-06-11T00:00:16.000Z</time></trkpt>
        <trkpt lat="29.3300398" lon="105.2348765"><ele>296.85</ele><time>2026-06-11T00:00:26.000Z</time></trkpt>
        <trkpt lat="29.3300447" lon="105.2347578"><ele>296.96</ele><time>2026-06-11T00:00:36.000Z</time></trkpt>
        <trkpt lat="29.3300947" lon="105.2346666"><ele>297.13</ele><time>2026-06-11T00:00:46.000Z</time></trkpt>
        <trkpt lat="29.3301394" lon="105.2345752"><ele>297.79</ele><time>2026-06-11T00:00:54.000Z</time></trkpt>
        <trkpt lat="29.3301832" lon="105.2345457"><ele>297.56</ele><time>2026-06-11T00:01:02.000Z</time></trkpt>
        <trkpt lat="29.3301535" lon="105.2346705"><ele>297.03</ele><time>2026-06-11T00:05:54.000Z</time></trkpt>
        <trkpt lat="29.3300869" lon="105.2347476"><ele>296.45</ele><time>2026-06-11T00:06:06.000Z</time></trkpt>
        <trkpt lat="29.330036" lon="105.2348406"><ele>296.42</ele><time>2026-06-11T00:06:20.000Z</time></trkpt>
        <trkpt lat="29.3300463" lon="105.2349411"><ele>296.73</ele><time>2026-06-11T00:06:54.000Z</time></trkpt>
        <trkpt lat="29.3300246" lon="105.2350422"><ele>296.01</ele><time>2026-06-11T00:07:12.000Z</time></trkpt>
        <trkpt lat="29.3300088" lon="105.2351536"><ele>295.08</ele><time>2026-06-11T00:07:28.000Z</time></trkpt>
        <trkpt lat="29.3299988" lon="105.2352624"><ele>294.4</ele><time>2026-06-11T00:07:42.000Z</time></trkpt>
        <trkpt lat="29.3300006" lon="105.2353745"><ele>293.72</ele><time>2026-06-11T00:07:58.000Z</time></trkpt>
        <trkpt lat="29.3300022" lon="105.235483"><ele>292.15</ele><time>2026-06-11T00:08:14.000Z</time></trkpt>
        <trkpt lat="29.329998" lon="105.2355899"><ele>291.03</ele><time>2026-06-11T00:08:28.000Z</time></trkpt>
        <trkpt lat="29.3299936" lon="105.2356991"><ele>291.62</ele><time>2026-06-11T00:09:00.000Z</time></trkpt>
        <trkpt lat="29.3299872" lon="105.2358106"><ele>292.01</ele><time>2026-06-11T00:09:18.000Z</time></trkpt>
        <trkpt lat="29.3299842" lon="105.2359276"><ele>291.99</ele><time>2026-06-11T00:09:34.000Z</time></trkpt>
        <trkpt lat="29.3299807" lon="105.2360391"><ele>291.91</ele><time>2026-06-11T00:09:48.000Z</time></trkpt>
        <trkpt lat="29.3299748" lon="105.2361501"><ele>292.07</ele><time>2026-06-11T00:10:04.000Z</time></trkpt>
        <trkpt lat="29.3299731" lon="105.2362561"><ele>291.71</ele><time>2026-06-11T00:10:18.000Z</time></trkpt>
        <trkpt lat="29.3299722" lon="105.2363678"><ele>291.37</ele><time>2026-06-11T00:10:40.000Z</time></trkpt>
        <trkpt lat="29.3299682" lon="105.2364734"><ele>291.71</ele><time>2026-06-11T00:10:54.000Z</time></trkpt>
        <trkpt lat="29.3299685" lon="105.2365857"><ele>292.27</ele><time>2026-06-11T00:11:08.000Z</time></trkpt>
        <trkpt lat="29.3299697" lon="105.2366981"><ele>292.35</ele><time>2026-06-11T00:11:26.000Z</time></trkpt>
        <trkpt lat="29.3299712" lon="105.2368045"><ele>292.39</ele><time>2026-06-11T00:11:40.000Z</time></trkpt>
        <trkpt lat="29.3299683" lon="105.236909"><ele>292.38</ele><time>2026-06-11T00:11:54.000Z</time></trkpt>
        <trkpt lat="29.329959" lon="105.2370127"><ele>292.45</ele><time>2026-06-11T00:12:08.000Z</time></trkpt>
        <trkpt lat="29.3299457" lon="105.2371219"><ele>292.45</ele><time>2026-06-11T00:12:24.000Z</time></trkpt>
        <trkpt lat="29.3299689" lon="105.2372247"><ele>292.58</ele><time>2026-06-11T00:12:50.000Z</time></trkpt>
        <trkpt lat="29.330035" lon="105.2372954"><ele>292.44</ele><time>2026-06-11T00:13:46.000Z</time></trkpt>
        <trkpt lat="29.3301428" lon="105.2372512"><ele>290.88</ele><time>2026-06-11T00:20:26.000Z</time></trkpt>
        <trkpt lat="29.3302452" lon="105.23726"><ele>289.57</ele><time>2026-06-11T00:20:40.000Z</time></trkpt>
        <trkpt lat="29.3303369" lon="105.237272"><ele>288.37</ele><time>2026-06-11T00:20:52.000Z</time></trkpt>
        <trkpt lat="29.3304282" lon="105.2372771"><ele>287.75</ele><time>2026-06-11T00:21:04.000Z</time></trkpt>
        <trkpt lat="29.3305183" lon="105.2372391"><ele>287.62</ele><time>2026-06-11T00:21:16.000Z</time></trkpt>
        <trkpt lat="29.3305792" lon="105.2371517"><ele>288.64</ele><time>2026-06-11T00:21:28.000Z</time></trkpt>
        <trkpt lat="29.3306162" lon="105.2370459"><ele>289.79</ele><time>2026-06-11T00:21:42.000Z</time></trkpt>
        <trkpt lat="29.3306884" lon="105.2369888"><ele>291.8</ele><time>2026-06-11T00:22:26.000Z</time></trkpt>
        <trkpt lat="29.3307111" lon="105.2368709"><ele>291.71</ele><time>2026-06-11T00:23:12.000Z</time></trkpt>
        <trkpt lat="29.3307727" lon="105.2367906"><ele>292.91</ele><time>2026-06-11T00:23:18.000Z</time></trkpt>
        <trkpt lat="29.3308017" lon="105.2366843"><ele>293.72</ele><time>2026-06-11T00:23:22.000Z</time></trkpt>
        <trkpt lat="29.3310719" lon="105.2364167"><ele>293.92</ele><time>2026-06-11T00:23:32.000Z</time></trkpt>
        <trkpt lat="29.3312348" lon="105.2362861"><ele>295.3</ele><time>2026-06-11T00:23:36.000Z</time></trkpt>
        <trkpt lat="29.3312891" lon="105.2361382"><ele>296.44</ele><time>2026-06-11T00:23:40.000Z</time></trkpt>
        <trkpt lat="29.3312632" lon="105.2359933"><ele>298.04</ele><time>2026-06-11T00:23:42.000Z</time></trkpt>
        <trkpt lat="29.3312314" lon="105.2358534"><ele>299.14</ele><time>2026-06-11T00:23:44.000Z</time></trkpt>
        <trkpt lat="29.3312009" lon="105.2357126"><ele>299.93</ele><time>2026-06-11T00:23:46.000Z</time></trkpt>
        <trkpt lat="29.3311775" lon="105.2355841"><ele>300.23</ele><time>2026-06-11T00:23:48.000Z</time></trkpt>
        <trkpt lat="29.331118" lon="105.2354389"><ele>300.67</ele><time>2026-06-11T00:23:52.000Z</time></trkpt>
        <trkpt lat="29.3310366" lon="105.2353294"><ele>301.38</ele><time>2026-06-11T00:23:54.000Z</time></trkpt>
        <trkpt lat="29.3309408" lon="105.235239"><ele>301.97</ele><time>2026-06-11T00:23:56.000Z</time></trkpt>
        <trkpt lat="29.3308449" lon="105.2351543"><ele>302.47</ele><time>2026-06-11T00:23:58.000Z</time></trkpt>
        <trkpt lat="29.3307516" lon="105.2350655"><ele>302.78</ele><time>2026-06-11T00:24:00.000Z</time></trkpt>
        <trkpt lat="29.3306601" lon="105.2349792"><ele>303.21</ele><time>2026-06-11T00:24:02.000Z</time></trkpt>
        <trkpt lat="29.3305737" lon="105.2348821"><ele>303.39</ele><time>2026-06-11T00:24:04.000Z</time></trkpt>
        <trkpt lat="29.3305099" lon="105.2347727"><ele>303.48</ele><time>2026-06-11T00:24:06.000Z</time></trkpt>
        <trkpt lat="29.3304568" lon="105.2346673"><ele>303.29</ele><time>2026-06-11T00:24:08.000Z</time></trkpt>
        <trkpt lat="29.3303528" lon="105.2345297"><ele>303.17</ele><time>2026-06-11T00:24:12.000Z</time></trkpt>
        <trkpt lat="29.3302766" lon="105.2344329"><ele>303.04</ele><time>2026-06-11T00:24:14.000Z</time></trkpt>
        <trkpt lat="29.3302034" lon="105.2343605"><ele>302.52</ele><time>2026-06-11T00:24:16.000Z</time></trkpt>
        <trkpt lat="29.3301263" lon="105.2342985"><ele>302.06</ele><time>2026-06-11T00:24:18.000Z</time></trkpt>
        <trkpt lat="29.3300453" lon="105.2342472"><ele>301.33</ele><time>2026-06-11T00:24:20.000Z</time></trkpt>
        <trkpt lat="29.3299515" lon="105.2342174"><ele>300.8</ele><time>2026-06-11T00:24:22.000Z</time></trkpt>
        <trkpt lat="29.3297948" lon="105.2341805"><ele>300.65</ele><time>2026-06-11T00:24:26.000Z</time></trkpt>
        <trkpt lat="29.3296374" lon="105.2341402"><ele>300.19</ele><time>2026-06-11T00:24:30.000Z</time></trkpt>
        <trkpt lat="29.3295001" lon="105.2342007"><ele>299.76</ele><time>2026-06-11T00:24:34.000Z</time></trkpt>
        <trkpt lat="29.3294349" lon="105.2342973"><ele>298.76</ele><time>2026-06-11T00:24:36.000Z</time></trkpt>
        <trkpt lat="29.3293863" lon="105.2344624"><ele>297.99</ele><time>2026-06-11T00:24:40.000Z</time></trkpt>
        <trkpt lat="29.3293411" lon="105.2346395"><ele>297.68</ele><time>2026-06-11T00:24:44.000Z</time></trkpt>
        <trkpt lat="29.3292953" lon="105.2347986"><ele>297.57</ele><time>2026-06-11T00:24:48.000Z</time></trkpt>
        <trkpt lat="29.3292368" lon="105.2348903"><ele>297.53</ele><time>2026-06-11T00:24:56.000Z</time></trkpt>
        <trkpt lat="29.3292178" lon="105.2348173"><ele>297.28</ele><time>2026-06-11T00:25:34.000Z</time></trkpt>
        <trkpt lat="29.3291879" lon="105.2346964"><ele>296.91</ele><time>2026-06-11T00:25:44.000Z</time></trkpt>
        <trkpt lat="29.3291526" lon="105.2345727"><ele>297.14</ele><time>2026-06-11T00:25:56.000Z</time></trkpt>
        <trkpt lat="29.3291028" lon="105.2344545"><ele>297.21</ele><time>2026-06-11T00:26:08.000Z</time></trkpt>
        <trkpt lat="29.3290515" lon="105.2343537"><ele>297.03</ele><time>2026-06-11T00:26:20.000Z</time></trkpt>
        <trkpt lat="29.3290097" lon="105.2342542"><ele>297.21</ele><time>2026-06-11T00:26:30.000Z</time></trkpt>
        <trkpt lat="29.3289666" lon="105.2341609"><ele>297.61</ele><time>2026-06-11T00:26:40.000Z</time></trkpt>
        <trkpt lat="29.3288871" lon="105.2341438"><ele>297.71</ele><time>2026-06-11T00:27:10.000Z</time></trkpt>
        <trkpt lat="29.3288091" lon="105.2342139"><ele>297.36</ele><time>2026-06-11T00:27:24.000Z</time></trkpt>
        <trkpt lat="29.3287314" lon="105.2343058"><ele>297.13</ele><time>2026-06-11T00:27:36.000Z</time></trkpt>
        <trkpt lat="29.3286499" lon="105.2343881"><ele>297.39</ele><time>2026-06-11T00:27:52.000Z</time></trkpt>
        <trkpt lat="29.3285707" lon="105.2344643"><ele>296.85</ele><time>2026-06-11T00:28:06.000Z</time></trkpt>
        <trkpt lat="29.3284955" lon="105.2345412"><ele>294.93</ele><time>2026-06-11T00:28:20.000Z</time></trkpt>
        <trkpt lat="29.3284718" lon="105.2346026"><ele>293.2</ele><time>2026-06-11T00:28:28.000Z</time></trkpt>
        <trkpt lat="29.3283973" lon="105.2345943"><ele>292.59</ele><time>2026-06-11T00:29:04.000Z</time></trkpt>
        <trkpt lat="29.3283054" lon="105.2345604"><ele>290.75</ele><time>2026-06-11T00:29:26.000Z</time></trkpt>
        <trkpt lat="29.3282029" lon="105.2345485"><ele>289.13</ele><time>2026-06-11T00:29:48.000Z</time></trkpt>
        <trkpt lat="29.328198" lon="105.234468"><ele>288.7</ele><time>2026-06-11T00:30:02.000Z</time></trkpt>
        <trkpt lat="29.3282194" lon="105.2345533"><ele>290.32</ele><time>2026-06-11T00:36:06.000Z</time></trkpt>
        <trkpt lat="29.3283096" lon="105.2345641"><ele>292.39</ele><time>2026-06-11T00:36:38.000Z</time></trkpt>
        <trkpt lat="29.3284033" lon="105.2345789"><ele>291.05</ele><time>2026-06-11T00:37:22.000Z</time></trkpt>
        <trkpt lat="29.3284827" lon="105.2346392"><ele>290.15</ele><time>2026-06-11T00:37:52.000Z</time></trkpt>
        <trkpt lat="29.3285536" lon="105.2347243"><ele>288.98</ele><time>2026-06-11T00:38:16.000Z</time></trkpt>
        <trkpt lat="29.3286265" lon="105.2347997"><ele>288.12</ele><time>2026-06-11T00:38:54.000Z</time></trkpt>
        <trkpt lat="29.3287147" lon="105.2348282"><ele>287.72</ele><time>2026-06-11T00:39:18.000Z</time></trkpt>
        <trkpt lat="29.3288064" lon="105.2348603"><ele>287.15</ele><time>2026-06-11T00:39:36.000Z</time></trkpt>
        <trkpt lat="29.3288997" lon="105.2348876"><ele>287.16</ele><time>2026-06-11T00:39:56.000Z</time></trkpt>
        <trkpt lat="29.3289947" lon="105.2348917"><ele>287.03</ele><time>2026-06-11T00:40:14.000Z</time></trkpt>
        <trkpt lat="29.329087" lon="105.2349146"><ele>288.54</ele><time>2026-06-11T00:40:28.000Z</time></trkpt>
        <trkpt lat="29.3291812" lon="105.2348996"><ele>290.08</ele><time>2026-06-11T00:40:44.000Z</time></trkpt>
        <trkpt lat="29.3292667" lon="105.2349308"><ele>292.31</ele><time>2026-06-11T00:41:38.000Z</time></trkpt>
        <trkpt lat="29.3293187" lon="105.234866"><ele>294.76</ele><time>2026-06-11T00:41:44.000Z</time></trkpt>
        <trkpt lat="29.3293578" lon="105.234753"><ele>296.05</ele><time>2026-06-11T00:41:48.000Z</time></trkpt>
        <trkpt lat="29.3293961" lon="105.2346135"><ele>297.13</ele><time>2026-06-11T00:41:52.000Z</time></trkpt>
        <trkpt lat="29.3294392" lon="105.2344535"><ele>297.71</ele><time>2026-06-11T00:41:56.000Z</time></trkpt>
        <trkpt lat="29.3294905" lon="105.2342825"><ele>297.98</ele><time>2026-06-11T00:42:00.000Z</time></trkpt>
        <trkpt lat="29.3295395" lon="105.2341511"><ele>297.68</ele><time>2026-06-11T00:42:04.000Z</time></trkpt>
        <trkpt lat="29.3296454" lon="105.2341062"><ele>296.99</ele><time>2026-06-11T00:42:10.000Z</time></trkpt>
        <trkpt lat="29.3297448" lon="105.2341347"><ele>296.38</ele><time>2026-06-11T00:42:14.000Z</time></trkpt>
        <trkpt lat="29.3298454" lon="105.2341754"><ele>296.07</ele><time>2026-06-11T00:42:18.000Z</time></trkpt>
        <trkpt lat="29.329979" lon="105.2342163"><ele>296.08</ele><time>2026-06-11T00:42:22.000Z</time></trkpt>
        <trkpt lat="29.3301145" lon="105.2342857"><ele>296.23</ele><time>2026-06-11T00:42:26.000Z</time></trkpt>
        <trkpt lat="29.3302311" lon="105.2344007"><ele>296.82</ele><time>2026-06-11T00:42:30.000Z</time></trkpt>
        <trkpt lat="29.3303428" lon="105.2345301"><ele>297.52</ele><time>2026-06-11T00:42:34.000Z</time></trkpt>
        <trkpt lat="29.3304563" lon="105.2346702"><ele>298.54</ele><time>2026-06-11T00:42:38.000Z</time></trkpt>
        <trkpt lat="29.3305447" lon="105.2348311"><ele>299.21</ele><time>2026-06-11T00:42:42.000Z</time></trkpt>
        <trkpt lat="29.3306421" lon="105.2349853"><ele>299.42</ele><time>2026-06-11T00:42:46.000Z</time></trkpt>
        <trkpt lat="29.3307605" lon="105.2351228"><ele>299.64</ele><time>2026-06-11T00:42:50.000Z</time></trkpt>
        <trkpt lat="29.330892" lon="105.2352506"><ele>299.75</ele><time>2026-06-11T00:42:54.000Z</time></trkpt>
        <trkpt lat="29.3310303" lon="105.2353736"><ele>299.64</ele><time>2026-06-11T00:42:58.000Z</time></trkpt>
        <trkpt lat="29.331136" lon="105.2354919"><ele>299.42</ele><time>2026-06-11T00:43:02.000Z</time></trkpt>
        <trkpt lat="29.3311902" lon="105.2356077"><ele>299.16</ele><time>2026-06-11T00:43:06.000Z</time></trkpt>
        <trkpt lat="29.3312114" lon="105.2357429"><ele>299.31</ele><time>2026-06-11T00:43:10.000Z</time></trkpt>
        <trkpt lat="29.3312264" lon="105.2358715"><ele>299.48</ele><time>2026-06-11T00:43:14.000Z</time></trkpt>
        <trkpt lat="29.3312403" lon="105.2359896"><ele>299.21</ele><time>2026-06-11T00:43:18.000Z</time></trkpt>
        <trkpt lat="29.3312554" lon="105.2361121"><ele>298.96</ele><time>2026-06-11T00:43:22.000Z</time></trkpt>
        <trkpt lat="29.3312701" lon="105.2362351"><ele>299.07</ele><time>2026-06-11T00:43:26.000Z</time></trkpt>
        <trkpt lat="29.3312891" lon="105.236366"><ele>299.51</ele><time>2026-06-11T00:43:30.000Z</time></trkpt>
        <trkpt lat="29.3313069" lon="105.2364769"><ele>300.19</ele><time>2026-06-11T00:43:34.000Z</time></trkpt>
        <trkpt lat="29.331323" lon="105.2365967"><ele>300.79</ele><time>2026-06-11T00:43:38.000Z</time></trkpt>
        <trkpt lat="29.3313395" lon="105.2367509"><ele>301.35</ele><time>2026-06-11T00:43:42.000Z</time></trkpt>
        <trkpt lat="29.3313585" lon="105.2369232"><ele>302.19</ele><time>2026-06-11T00:43:46.000Z</time></trkpt>
        <trkpt lat="29.331368" lon="105.237079"><ele>303.24</ele><time>2026-06-11T00:43:50.000Z</time></trkpt>
        <trkpt lat="29.3313882" lon="105.2372324"><ele>304.31</ele><time>2026-06-11T00:43:54.000Z</time></trkpt>
        <trkpt lat="29.3314213" lon="105.2373867"><ele>305.46</ele><time>2026-06-11T00:43:58.000Z</time></trkpt>
        <trkpt lat="29.3314614" lon="105.2375539"><ele>306.31</ele><time>2026-06-11T00:44:02.000Z</time></trkpt>
        <trkpt lat="29.3315146" lon="105.237726"><ele>307.49</ele><time>2026-06-11T00:44:06.000Z</time></trkpt>
        <trkpt lat="29.3315634" lon="105.2378919"><ele>309.01</ele><time>2026-06-11T00:44:10.000Z</time></trkpt>
        <trkpt lat="29.3315975" lon="105.2380456"><ele>310.76</ele><time>2026-06-11T00:44:14.000Z</time></trkpt>
        <trkpt lat="29.3316151" lon="105.2382189"><ele>312.54</ele><time>2026-06-11T00:44:18.000Z</time></trkpt>
        <trkpt lat="29.3316566" lon="105.2383818"><ele>314</ele><time>2026-06-11T00:44:22.000Z</time></trkpt>
        <trkpt lat="29.3316837" lon="105.2385378"><ele>314.58</ele><time>2026-06-11T00:44:26.000Z</time></trkpt>
        <trkpt lat="29.33175" lon="105.2386969"><ele>314.86</ele><time>2026-06-11T00:44:30.000Z</time></trkpt>
        <trkpt lat="29.3318836" lon="105.2387753"><ele>315.24</ele><time>2026-06-11T00:44:34.000Z</time></trkpt>
        <trkpt lat="29.3320056" lon="105.2388209"><ele>316.36</ele><time>2026-06-11T00:44:38.000Z</time></trkpt>
        <trkpt lat="29.3320962" lon="105.238894"><ele>317.25</ele><time>2026-06-11T00:44:42.000Z</time></trkpt>
        <trkpt lat="29.3321702" lon="105.2389942"><ele>317.87</ele><time>2026-06-11T00:44:48.000Z</time></trkpt>
        <trkpt lat="29.3322008" lon="105.2391264"><ele>317.77</ele><time>2026-06-11T00:45:16.000Z</time></trkpt>
        <trkpt lat="29.332207" lon="105.2392456"><ele>317.33</ele><time>2026-06-11T00:45:18.000Z</time></trkpt>
        <trkpt lat="29.3322211" lon="105.2393535"><ele>317.05</ele><time>2026-06-11T00:45:20.000Z</time></trkpt>
        <trkpt lat="29.3322625" lon="105.2395113"><ele>316.95</ele><time>2026-06-11T00:45:24.000Z</time></trkpt>
        <trkpt lat="29.3323107" lon="105.2396738"><ele>316.89</ele><time>2026-06-11T00:45:28.000Z</time></trkpt>
        <trkpt lat="29.3323678" lon="105.2398413"><ele>316.95</ele><time>2026-06-11T00:45:32.000Z</time></trkpt>
        <trkpt lat="29.3324072" lon="105.239961"><ele>316.92</ele><time>2026-06-11T00:45:34.000Z</time></trkpt>
        <trkpt lat="29.3324392" lon="105.2400639"><ele>316.82</ele><time>2026-06-11T00:45:36.000Z</time></trkpt>
        <trkpt lat="29.3324688" lon="105.2401632"><ele>316.76</ele><time>2026-06-11T00:45:38.000Z</time></trkpt>
        <trkpt lat="29.3325008" lon="105.2402652"><ele>316.68</ele><time>2026-06-11T00:45:40.000Z</time></trkpt>
        <trkpt lat="29.3325368" lon="105.2403681"><ele>316.81</ele><time>2026-06-11T00:45:42.000Z</time></trkpt>
        <trkpt lat="29.3325749" lon="105.2404735"><ele>317.06</ele><time>2026-06-11T00:45:44.000Z</time></trkpt>
        <trkpt lat="29.3326137" lon="105.2405835"><ele>317.36</ele><time>2026-06-11T00:45:46.000Z</time></trkpt>
        <trkpt lat="29.3326504" lon="105.2406993"><ele>317.57</ele><time>2026-06-11T00:45:48.000Z</time></trkpt>
        <trkpt lat="29.3326865" lon="105.240816"><ele>317.8</ele><time>2026-06-11T00:45:50.000Z</time></trkpt>
        <trkpt lat="29.3327222" lon="105.2409392"><ele>318.01</ele><time>2026-06-11T00:45:52.000Z</time></trkpt>
        <trkpt lat="29.3327593" lon="105.2410644"><ele>318.07</ele><time>2026-06-11T00:45:54.000Z</time></trkpt>
        <trkpt lat="29.3327947" lon="105.241183"><ele>318.12</ele><time>2026-06-11T00:45:56.000Z</time></trkpt>
        <trkpt lat="29.3328322" lon="105.2412903"><ele>317.99</ele><time>2026-06-11T00:45:58.000Z</time></trkpt>
        <trkpt lat="29.3328935" lon="105.2414623"><ele>317.6</ele><time>2026-06-11T00:46:02.000Z</time></trkpt>
        <trkpt lat="29.3329372" lon="105.2415886"><ele>317.15</ele><time>2026-06-11T00:46:04.000Z</time></trkpt>
        <trkpt lat="29.3329544" lon="105.2417595"><ele>317.15</ele><time>2026-06-11T00:46:08.000Z</time></trkpt>
        <trkpt lat="29.3329065" lon="105.2419259"><ele>317.6</ele><time>2026-06-11T00:46:12.000Z</time></trkpt>
        <trkpt lat="29.3328342" lon="105.2420778"><ele>318.07</ele><time>2026-06-11T00:46:16.000Z</time></trkpt>
        <trkpt lat="29.332773" lon="105.2421826"><ele>318.8</ele><time>2026-06-11T00:46:18.000Z</time></trkpt>
        <trkpt lat="29.3327084" lon="105.2422718"><ele>319.68</ele><time>2026-06-11T00:46:20.000Z</time></trkpt>
        <trkpt lat="29.3326319" lon="105.2423627"><ele>320.75</ele><time>2026-06-11T00:46:22.000Z</time></trkpt>
        <trkpt lat="29.3325587" lon="105.2424699"><ele>321.51</ele><time>2026-06-11T00:46:24.000Z</time></trkpt>
        <trkpt lat="29.3325096" lon="105.242591"><ele>322.62</ele><time>2026-06-11T00:46:26.000Z</time></trkpt>
        <trkpt lat="29.3324778" lon="105.2427118"><ele>324.02</ele><time>2026-06-11T00:46:28.000Z</time></trkpt>
        <trkpt lat="29.3324519" lon="105.2428198"><ele>325.64</ele><time>2026-06-11T00:46:30.000Z</time></trkpt>
        <trkpt lat="29.3324225" lon="105.2429235"><ele>327.3</ele><time>2026-06-11T00:46:32.000Z</time></trkpt>
        <trkpt lat="29.3323808" lon="105.2430231"><ele>328.63</ele><time>2026-06-11T00:46:34.000Z</time></trkpt>
        <trkpt lat="29.3323297" lon="105.2431167"><ele>329.81</ele><time>2026-06-11T00:46:36.000Z</time></trkpt>
        <trkpt lat="29.3322422" lon="105.2432673"><ele>330.54</ele><time>2026-06-11T00:46:40.000Z</time></trkpt>
        <trkpt lat="29.3321634" lon="105.2433968"><ele>331.76</ele><time>2026-06-11T00:46:42.000Z</time></trkpt>
        <trkpt lat="29.3320957" lon="105.2435028"><ele>332.66</ele><time>2026-06-11T00:46:44.000Z</time></trkpt>
        <trkpt lat="29.3320353" lon="105.243592"><ele>333.36</ele><time>2026-06-11T00:46:46.000Z</time></trkpt>
        <trkpt lat="29.3319729" lon="105.2436784"><ele>333.52</ele><time>2026-06-11T00:46:48.000Z</time></trkpt>
        <trkpt lat="29.3319045" lon="105.2437689"><ele>333.41</ele><time>2026-06-11T00:46:50.000Z</time></trkpt>
        <trkpt lat="29.3318291" lon="105.2438617"><ele>333.2</ele><time>2026-06-11T00:46:52.000Z</time></trkpt>
        <trkpt lat="29.3317522" lon="105.2439568"><ele>332.83</ele><time>2026-06-11T00:46:54.000Z</time></trkpt>
        <trkpt lat="29.3316758" lon="105.2440527"><ele>332.63</ele><time>2026-06-11T00:46:56.000Z</time></trkpt>
        <trkpt lat="29.3316" lon="105.2441423"><ele>332.67</ele><time>2026-06-11T00:46:58.000Z</time></trkpt>
        <trkpt lat="29.3315177" lon="105.2442419"><ele>333.02</ele><time>2026-06-11T00:47:00.000Z</time></trkpt>
        <trkpt lat="29.3314345" lon="105.2443399"><ele>333.49</ele><time>2026-06-11T00:47:02.000Z</time></trkpt>
        <trkpt lat="29.3313565" lon="105.2444328"><ele>334.04</ele><time>2026-06-11T00:47:04.000Z</time></trkpt>
        <trkpt lat="29.3312839" lon="105.2445194"><ele>334.37</ele><time>2026-06-11T00:47:06.000Z</time></trkpt>
        <trkpt lat="29.3312172" lon="105.244602"><ele>334.81</ele><time>2026-06-11T00:47:08.000Z</time></trkpt>
        <trkpt lat="29.3311557" lon="105.2446899"><ele>335.13</ele><time>2026-06-11T00:47:10.000Z</time></trkpt>
        <trkpt lat="29.3310998" lon="105.2448025"><ele>335.51</ele><time>2026-06-11T00:47:12.000Z</time></trkpt>
        <trkpt lat="29.3310729" lon="105.2449278"><ele>335.76</ele><time>2026-06-11T00:47:14.000Z</time></trkpt>
        <trkpt lat="29.3310667" lon="105.2450626"><ele>335.73</ele><time>2026-06-11T00:47:16.000Z</time></trkpt>
        <trkpt lat="29.3310792" lon="105.2451933"><ele>335.57</ele><time>2026-06-11T00:47:18.000Z</time></trkpt>
        <trkpt lat="29.3311024" lon="105.2453239"><ele>335.3</ele><time>2026-06-11T00:47:20.000Z</time></trkpt>
        <trkpt lat="29.3311298" lon="105.2454472"><ele>335.07</ele><time>2026-06-11T00:47:22.000Z</time></trkpt>
        <trkpt lat="29.3311759" lon="105.2455493"><ele>334.78</ele><time>2026-06-11T00:47:24.000Z</time></trkpt>
        <trkpt lat="29.3312579" lon="105.2456153"><ele>334.52</ele><time>2026-06-11T00:47:26.000Z</time></trkpt>
        <trkpt lat="29.3313668" lon="105.2456427"><ele>334.29</ele><time>2026-06-11T00:47:28.000Z</time></trkpt>
        <trkpt lat="29.3314883" lon="105.2456577"><ele>333.93</ele><time>2026-06-11T00:47:30.000Z</time></trkpt>
        <trkpt lat="29.3316146" lon="105.2456749"><ele>333.23</ele><time>2026-06-11T00:47:32.000Z</time></trkpt>
        <trkpt lat="29.3317386" lon="105.2457131"><ele>332.4</ele><time>2026-06-11T00:47:34.000Z</time></trkpt>
        <trkpt lat="29.331837" lon="105.2457968"><ele>331.68</ele><time>2026-06-11T00:47:36.000Z</time></trkpt>
        <trkpt lat="29.3319134" lon="105.2459078"><ele>330.87</ele><time>2026-06-11T00:47:38.000Z</time></trkpt>
        <trkpt lat="29.331981" lon="105.2460242"><ele>330.35</ele><time>2026-06-11T00:47:40.000Z</time></trkpt>
        <trkpt lat="29.3320554" lon="105.2461259"><ele>329.9</ele><time>2026-06-11T00:47:42.000Z</time></trkpt>
        <trkpt lat="29.3321613" lon="105.2461925"><ele>329.47</ele><time>2026-06-11T00:47:44.000Z</time></trkpt>
        <trkpt lat="29.3322881" lon="105.2462248"><ele>329.44</ele><time>2026-06-11T00:47:46.000Z</time></trkpt>
        <trkpt lat="29.3324421" lon="105.2462355"><ele>329.62</ele><time>2026-06-11T00:47:48.000Z</time></trkpt>
        <trkpt lat="29.3325887" lon="105.2462412"><ele>329.5</ele><time>2026-06-11T00:47:50.000Z</time></trkpt>
        <trkpt lat="29.3327258" lon="105.246277"><ele>329.6</ele><time>2026-06-11T00:47:52.000Z</time></trkpt>
        <trkpt lat="29.3328589" lon="105.2463198"><ele>329.04</ele><time>2026-06-11T00:47:54.000Z</time></trkpt>
        <trkpt lat="29.3329797" lon="105.2463871"><ele>328.51</ele><time>2026-06-11T00:47:56.000Z</time></trkpt>
        <trkpt lat="29.3331049" lon="105.2464437"><ele>327.43</ele><time>2026-06-11T00:47:58.000Z</time></trkpt>
        <trkpt lat="29.3332278" lon="105.2465045"><ele>327.05</ele><time>2026-06-11T00:48:00.000Z</time></trkpt>
        <trkpt lat="29.3333482" lon="105.2465429"><ele>326.93</ele><time>2026-06-11T00:48:02.000Z</time></trkpt>
        <trkpt lat="29.3334802" lon="105.2465801"><ele>327.2</ele><time>2026-06-11T00:48:04.000Z</time></trkpt>
        <trkpt lat="29.333607" lon="105.2466317"><ele>327.33</ele><time>2026-06-11T00:48:06.000Z</time></trkpt>
        <trkpt lat="29.3337194" lon="105.2467043"><ele>326.66</ele><time>2026-06-11T00:48:08.000Z</time></trkpt>
        <trkpt lat="29.3338049" lon="105.246784"><ele>326.35</ele><time>2026-06-11T00:48:10.000Z</time></trkpt>
        <trkpt lat="29.3338552" lon="105.2468768"><ele>326.04</ele><time>2026-06-11T00:48:12.000Z</time></trkpt>
        <trkpt lat="29.3338635" lon="105.2469811"><ele>326</ele><time>2026-06-11T00:48:14.000Z</time></trkpt>
        <trkpt lat="29.3338303" lon="105.2470852"><ele>324.98</ele><time>2026-06-11T00:48:16.000Z</time></trkpt>
        <trkpt lat="29.333781" lon="105.2471882"><ele>323.95</ele><time>2026-06-11T00:48:18.000Z</time></trkpt>
        <trkpt lat="29.3337358" lon="105.2472913"><ele>323.08</ele><time>2026-06-11T00:48:20.000Z</time></trkpt>
        <trkpt lat="29.3337276" lon="105.2474107"><ele>322.4</ele><time>2026-06-11T00:48:22.000Z</time></trkpt>
        <trkpt lat="29.333725" lon="105.2475511"><ele>321.86</ele><time>2026-06-11T00:48:24.000Z</time></trkpt>
        <trkpt lat="29.3337331" lon="105.2476942"><ele>321.27</ele><time>2026-06-11T00:48:26.000Z</time></trkpt>
        <trkpt lat="29.3337365" lon="105.2478509"><ele>319.97</ele><time>2026-06-11T00:48:28.000Z</time></trkpt>
        <trkpt lat="29.3337335" lon="105.2480053"><ele>318.92</ele><time>2026-06-11T00:48:30.000Z</time></trkpt>
        <trkpt lat="29.3336882" lon="105.2481386"><ele>318.04</ele><time>2026-06-11T00:48:32.000Z</time></trkpt>
        <trkpt lat="29.3336311" lon="105.2482776"><ele>318.34</ele><time>2026-06-11T00:48:34.000Z</time></trkpt>
        <trkpt lat="29.3335825" lon="105.2483932"><ele>319.04</ele><time>2026-06-11T00:48:36.000Z</time></trkpt>
        <trkpt lat="29.333525" lon="105.2485007"><ele>320.41</ele><time>2026-06-11T00:48:38.000Z</time></trkpt>
        <trkpt lat="29.3334623" lon="105.2486075"><ele>321.15</ele><time>2026-06-11T00:48:40.000Z</time></trkpt>
        <trkpt lat="29.3333769" lon="105.2487846"><ele>321.66</ele><time>2026-06-11T00:48:44.000Z</time></trkpt>
        <trkpt lat="29.3333115" lon="105.248932"><ele>321.15</ele><time>2026-06-11T00:48:46.000Z</time></trkpt>
        <trkpt lat="29.3332725" lon="105.2490659"><ele>320.82</ele><time>2026-06-11T00:48:48.000Z</time></trkpt>
        <trkpt lat="29.3332679" lon="105.2492049"><ele>320.6</ele><time>2026-06-11T00:48:50.000Z</time></trkpt>
        <trkpt lat="29.3332801" lon="105.2493369"><ele>320.36</ele><time>2026-06-11T00:48:52.000Z</time></trkpt>
        <trkpt lat="29.3333052" lon="105.2494494"><ele>319.73</ele><time>2026-06-11T00:48:54.000Z</time></trkpt>
        <trkpt lat="29.3333417" lon="105.2495541"><ele>320.55</ele><time>2026-06-11T00:48:56.000Z</time></trkpt>
        <trkpt lat="29.3334511" lon="105.2495727"><ele>320.96</ele><time>2026-06-11T00:48:58.000Z</time></trkpt>
        <trkpt lat="29.3335594" lon="105.2495627"><ele>321.43</ele><time>2026-06-11T00:49:00.000Z</time></trkpt>
        <trkpt lat="29.3336782" lon="105.2495089"><ele>322.74</ele><time>2026-06-11T00:49:02.000Z</time></trkpt>
        <trkpt lat="29.3337992" lon="105.2494304"><ele>324.23</ele><time>2026-06-11T00:49:04.000Z</time></trkpt>
        <trkpt lat="29.3339218" lon="105.2493559"><ele>325.52</ele><time>2026-06-11T00:49:06.000Z</time></trkpt>
        <trkpt lat="29.3340497" lon="105.2492751"><ele>326.3</ele><time>2026-06-11T00:49:08.000Z</time></trkpt>
        <trkpt lat="29.3341795" lon="105.2492157"><ele>326.57</ele><time>2026-06-11T00:49:10.000Z</time></trkpt>
        <trkpt lat="29.3343107" lon="105.249188"><ele>326.79</ele><time>2026-06-11T00:49:12.000Z</time></trkpt>
        <trkpt lat="29.3344366" lon="105.2491788"><ele>326.92</ele><time>2026-06-11T00:49:14.000Z</time></trkpt>
        <trkpt lat="29.3345657" lon="105.2491909"><ele>326.72</ele><time>2026-06-11T00:49:16.000Z</time></trkpt>
        <trkpt lat="29.3347031" lon="105.2492093"><ele>326.49</ele><time>2026-06-11T00:49:18.000Z</time></trkpt>
        <trkpt lat="29.3348082" lon="105.2492629"><ele>325.2</ele><time>2026-06-11T00:49:20.000Z</time></trkpt>
        <trkpt lat="29.3349098" lon="105.2493284"><ele>324.97</ele><time>2026-06-11T00:49:22.000Z</time></trkpt>
        <trkpt lat="29.3349967" lon="105.2494114"><ele>324.7</ele><time>2026-06-11T00:49:24.000Z</time></trkpt>
        <trkpt lat="29.3350612" lon="105.2495004"><ele>324.7</ele><time>2026-06-11T00:49:26.000Z</time></trkpt>
        <trkpt lat="29.3350958" lon="105.2496059"><ele>324.68</ele><time>2026-06-11T00:49:28.000Z</time></trkpt>
        <trkpt lat="29.3350776" lon="105.2498233"><ele>324.76</ele><time>2026-06-11T00:49:32.000Z</time></trkpt>
        <trkpt lat="29.3350575" lon="105.2500029"><ele>324.4</ele><time>2026-06-11T00:49:34.000Z</time></trkpt>
        <trkpt lat="29.3350392" lon="105.2501618"><ele>323.7</ele><time>2026-06-11T00:49:36.000Z</time></trkpt>
        <trkpt lat="29.3350076" lon="105.250304"><ele>323.03</ele><time>2026-06-11T00:49:38.000Z</time></trkpt>
        <trkpt lat="29.3349661" lon="105.2504588"><ele>322.74</ele><time>2026-06-11T00:49:40.000Z</time></trkpt>
        <trkpt lat="29.3349232" lon="105.2506211"><ele>323.18</ele><time>2026-06-11T00:49:42.000Z</time></trkpt>
        <trkpt lat="29.3348808" lon="105.2507838"><ele>323.55</ele><time>2026-06-11T00:49:44.000Z</time></trkpt>
        <trkpt lat="29.3348431" lon="105.2509512"><ele>323.95</ele><time>2026-06-11T00:49:46.000Z</time></trkpt>
        <trkpt lat="29.334808" lon="105.2511319"><ele>324.65</ele><time>2026-06-11T00:49:48.000Z</time></trkpt>
        <trkpt lat="29.3347759" lon="105.2513284"><ele>324.16</ele><time>2026-06-11T00:49:50.000Z</time></trkpt>
        <trkpt lat="29.3347638" lon="105.2515255"><ele>324.76</ele><time>2026-06-11T00:49:52.000Z</time></trkpt>
        <trkpt lat="29.3347481" lon="105.2517097"><ele>325.17</ele><time>2026-06-11T00:49:54.000Z</time></trkpt>
        <trkpt lat="29.3347067" lon="105.2518937"><ele>325.81</ele><time>2026-06-11T00:49:56.000Z</time></trkpt>
        <trkpt lat="29.3346269" lon="105.2520532"><ele>326.86</ele><time>2026-06-11T00:49:58.000Z</time></trkpt>
        <trkpt lat="29.3345665" lon="105.2521935"><ele>327.56</ele><time>2026-06-11T00:50:00.000Z</time></trkpt>
        <trkpt lat="29.3345098" lon="105.2523324"><ele>329.6</ele><time>2026-06-11T00:50:02.000Z</time></trkpt>
        <trkpt lat="29.3344674" lon="105.252508"><ele>330.44</ele><time>2026-06-11T00:50:04.000Z</time></trkpt>
        <trkpt lat="29.3344276" lon="105.2526945"><ele>331.82</ele><time>2026-06-11T00:50:06.000Z</time></trkpt>
        <trkpt lat="29.3343995" lon="105.2528647"><ele>332.81</ele><time>2026-06-11T00:50:08.000Z</time></trkpt>
        <trkpt lat="29.3343806" lon="105.2530441"><ele>334.46</ele><time>2026-06-11T00:50:10.000Z</time></trkpt>
        <trkpt lat="29.3343227" lon="105.2532037"><ele>335.87</ele><time>2026-06-11T00:50:12.000Z</time></trkpt>
        <trkpt lat="29.3342152" lon="105.253326"><ele>336.85</ele><time>2026-06-11T00:50:14.000Z</time></trkpt>
        <trkpt lat="29.3340735" lon="105.2534224"><ele>337.76</ele><time>2026-06-11T00:50:16.000Z</time></trkpt>
        <trkpt lat="29.333923" lon="105.2535091"><ele>338.5</ele><time>2026-06-11T00:50:18.000Z</time></trkpt>
        <trkpt lat="29.333774" lon="105.2535971"><ele>339.11</ele><time>2026-06-11T00:50:20.000Z</time></trkpt>
        <trkpt lat="29.3336316" lon="105.2536875"><ele>339.98</ele><time>2026-06-11T00:50:22.000Z</time></trkpt>
        <trkpt lat="29.3334906" lon="105.2537775"><ele>340.69</ele><time>2026-06-11T00:50:24.000Z</time></trkpt>
        <trkpt lat="29.3333494" lon="105.253867"><ele>341.16</ele><time>2026-06-11T00:50:26.000Z</time></trkpt>
        <trkpt lat="29.333212" lon="105.2539561"><ele>341.69</ele><time>2026-06-11T00:50:28.000Z</time></trkpt>
        <trkpt lat="29.3330938" lon="105.2540344"><ele>342.24</ele><time>2026-06-11T00:50:30.000Z</time></trkpt>
        <trkpt lat="29.3330015" lon="105.2541127"><ele>342.47</ele><time>2026-06-11T00:50:32.000Z</time></trkpt>
        <trkpt lat="29.3329537" lon="105.2542288"><ele>342.39</ele><time>2026-06-11T00:50:34.000Z</time></trkpt>
        <trkpt lat="29.3329676" lon="105.2543718"><ele>342.54</ele><time>2026-06-11T00:50:36.000Z</time></trkpt>
        <trkpt lat="29.3330176" lon="105.2545319"><ele>342.45</ele><time>2026-06-11T00:50:38.000Z</time></trkpt>
        <trkpt lat="29.3330787" lon="105.2546989"><ele>342.23</ele><time>2026-06-11T00:50:40.000Z</time></trkpt>
        <trkpt lat="29.3331115" lon="105.2548662"><ele>341.81</ele><time>2026-06-11T00:50:42.000Z</time></trkpt>
        <trkpt lat="29.3330987" lon="105.2550347"><ele>341.78</ele><time>2026-06-11T00:50:44.000Z</time></trkpt>
        <trkpt lat="29.3330657" lon="105.255203"><ele>341.92</ele><time>2026-06-11T00:50:46.000Z</time></trkpt>
        <trkpt lat="29.3330096" lon="105.2553741"><ele>341.74</ele><time>2026-06-11T00:50:48.000Z</time></trkpt>
        <trkpt lat="29.3329527" lon="105.2555406"><ele>341.82</ele><time>2026-06-11T00:50:50.000Z</time></trkpt>
        <trkpt lat="29.3328954" lon="105.2557048"><ele>341.4</ele><time>2026-06-11T00:50:52.000Z</time></trkpt>
        <trkpt lat="29.3328443" lon="105.2558717"><ele>341.04</ele><time>2026-06-11T00:50:54.000Z</time></trkpt>
        <trkpt lat="29.3327979" lon="105.256045"><ele>340.53</ele><time>2026-06-11T00:50:56.000Z</time></trkpt>
        <trkpt lat="29.3327632" lon="105.2562397"><ele>340.26</ele><time>2026-06-11T00:50:58.000Z</time></trkpt>
        <trkpt lat="29.3327124" lon="105.2564526"><ele>339.45</ele><time>2026-06-11T00:51:00.000Z</time></trkpt>
        <trkpt lat="29.3326496" lon="105.2566716"><ele>339.05</ele><time>2026-06-11T00:51:02.000Z</time></trkpt>
        <trkpt lat="29.3325761" lon="105.2568899"><ele>337.94</ele><time>2026-06-11T00:51:04.000Z</time></trkpt>
        <trkpt lat="29.3325086" lon="105.2570895"><ele>336.51</ele><time>2026-06-11T00:51:06.000Z</time></trkpt>
        <trkpt lat="29.3324369" lon="105.2572873"><ele>336.4</ele><time>2026-06-11T00:51:08.000Z</time></trkpt>
        <trkpt lat="29.3324009" lon="105.2574774"><ele>335.87</ele><time>2026-06-11T00:51:10.000Z</time></trkpt>
        <trkpt lat="29.332436" lon="105.2576559"><ele>335.45</ele><time>2026-06-11T00:51:12.000Z</time></trkpt>
        <trkpt lat="29.3325299" lon="105.2578059"><ele>334.67</ele><time>2026-06-11T00:51:14.000Z</time></trkpt>
        <trkpt lat="29.3326322" lon="105.257959"><ele>332.85</ele><time>2026-06-11T00:51:16.000Z</time></trkpt>
        <trkpt lat="29.3327385" lon="105.2581143"><ele>330.85</ele><time>2026-06-11T00:51:18.000Z</time></trkpt>
        <trkpt lat="29.3328447" lon="105.2582621"><ele>329.43</ele><time>2026-06-11T00:51:20.000Z</time></trkpt>
        <trkpt lat="29.3329328" lon="105.2584201"><ele>328.03</ele><time>2026-06-11T00:51:22.000Z</time></trkpt>
        <trkpt lat="29.3330155" lon="105.258558"><ele>326.11</ele><time>2026-06-11T00:51:24.000Z</time></trkpt>
        <trkpt lat="29.3331033" lon="105.2586668"><ele>323.98</ele><time>2026-06-11T00:51:26.000Z</time></trkpt>
        <trkpt lat="29.3332257" lon="105.2587445"><ele>322.75</ele><time>2026-06-11T00:51:28.000Z</time></trkpt>
        <trkpt lat="29.3333539" lon="105.2587627"><ele>321.23</ele><time>2026-06-11T00:51:30.000Z</time></trkpt>
        <trkpt lat="29.3334837" lon="105.2587704"><ele>319.52</ele><time>2026-06-11T00:51:32.000Z</time></trkpt>
        <trkpt lat="29.3336273" lon="105.2587844"><ele>318.33</ele><time>2026-06-11T00:51:34.000Z</time></trkpt>
        <trkpt lat="29.3337799" lon="105.2588014"><ele>317.96</ele><time>2026-06-11T00:51:36.000Z</time></trkpt>
        <trkpt lat="29.33394" lon="105.2588235"><ele>318.12</ele><time>2026-06-11T00:51:38.000Z</time></trkpt>
        <trkpt lat="29.3340988" lon="105.2588475"><ele>318.25</ele><time>2026-06-11T00:51:40.000Z</time></trkpt>
        <trkpt lat="29.3342588" lon="105.2588806"><ele>318.36</ele><time>2026-06-11T00:51:42.000Z</time></trkpt>
        <trkpt lat="29.3344214" lon="105.258921"><ele>318.43</ele><time>2026-06-11T00:51:44.000Z</time></trkpt>
        <trkpt lat="29.334575" lon="105.2589728"><ele>318.81</ele><time>2026-06-11T00:51:46.000Z</time></trkpt>
        <trkpt lat="29.3347188" lon="105.2590401"><ele>319</ele><time>2026-06-11T00:51:48.000Z</time></trkpt>
        <trkpt lat="29.3348619" lon="105.2591021"><ele>319.15</ele><time>2026-06-11T00:51:50.000Z</time></trkpt>
        <trkpt lat="29.3349923" lon="105.2591148"><ele>319.09</ele><time>2026-06-11T00:51:52.000Z</time></trkpt>
        <trkpt lat="29.3351111" lon="105.2591443"><ele>318.21</ele><time>2026-06-11T00:51:54.000Z</time></trkpt>
        <trkpt lat="29.3352193" lon="105.2591734"><ele>317.39</ele><time>2026-06-11T00:51:56.000Z</time></trkpt>
        <trkpt lat="29.3353146" lon="105.2592117"><ele>316.82</ele><time>2026-06-11T00:51:58.000Z</time></trkpt>
        <trkpt lat="29.335408" lon="105.2592521"><ele>316.35</ele><time>2026-06-11T00:52:00.000Z</time></trkpt>
        <trkpt lat="29.3355027" lon="105.2592893"><ele>315.69</ele><time>2026-06-11T00:52:02.000Z</time></trkpt>
        <trkpt lat="29.3355892" lon="105.259338"><ele>314.77</ele><time>2026-06-11T00:52:04.000Z</time></trkpt>
        <trkpt lat="29.335669" lon="105.2593887"><ele>313.92</ele><time>2026-06-11T00:52:06.000Z</time></trkpt>
        <trkpt lat="29.335792" lon="105.2594736"><ele>313.16</ele><time>2026-06-11T00:52:10.000Z</time></trkpt>
        <trkpt lat="29.3359455" lon="105.2595725"><ele>312.58</ele><time>2026-06-11T00:52:14.000Z</time></trkpt>
        <trkpt lat="29.3360587" lon="105.2596533"><ele>312.35</ele><time>2026-06-11T00:52:16.000Z</time></trkpt>
        <trkpt lat="29.336171" lon="105.2597188"><ele>312.15</ele><time>2026-06-11T00:52:18.000Z</time></trkpt>
        <trkpt lat="29.3362811" lon="105.259785"><ele>312.48</ele><time>2026-06-11T00:52:20.000Z</time></trkpt>
        <trkpt lat="29.336385" lon="105.25984"><ele>313.1</ele><time>2026-06-11T00:52:22.000Z</time></trkpt>
        <trkpt lat="29.336502" lon="105.2598827"><ele>314.21</ele><time>2026-06-11T00:52:24.000Z</time></trkpt>
        <trkpt lat="29.3366184" lon="105.2599008"><ele>314.73</ele><time>2026-06-11T00:52:26.000Z</time></trkpt>
        <trkpt lat="29.3367262" lon="105.2599009"><ele>314.92</ele><time>2026-06-11T00:52:28.000Z</time></trkpt>
        <trkpt lat="29.3368753" lon="105.2599148"><ele>315.02</ele><time>2026-06-11T00:52:32.000Z</time></trkpt>
        <trkpt lat="29.3370422" lon="105.2599591"><ele>315.67</ele><time>2026-06-11T00:52:36.000Z</time></trkpt>
        <trkpt lat="29.3371582" lon="105.2600189"><ele>316.62</ele><time>2026-06-11T00:52:38.000Z</time></trkpt>
        <trkpt lat="29.3372639" lon="105.2600929"><ele>317.44</ele><time>2026-06-11T00:52:40.000Z</time></trkpt>
        <trkpt lat="29.3373689" lon="105.2601752"><ele>318.31</ele><time>2026-06-11T00:52:42.000Z</time></trkpt>
        <trkpt lat="29.3373689" lon="105.2601752"><ele>318.31</ele><time>2026-06-11T00:52:44.000Z</time></trkpt>
        <trkpt lat="29.3374657" lon="105.2602637"><ele>322.18</ele><time>2026-06-11T00:52:44.000Z</time></trkpt>
        <trkpt lat="29.3375558" lon="105.2603475"><ele>323.2</ele><time>2026-06-11T00:52:46.000Z</time></trkpt>
        <trkpt lat="29.3376331" lon="105.2604472"><ele>322.25</ele><time>2026-06-11T00:52:48.000Z</time></trkpt>
        <trkpt lat="29.3376331" lon="105.2604472"><ele>322.25</ele><time>2026-06-11T00:52:48.000Z</time></trkpt>
      </trkseg>
  </trk>
</gpx>